createdAt,value
2023-02-12T00:00:54.191Z,4.60
2023-02-12T00:03:21.402Z,4.50
2023-02-12T00:05:48.823Z,4.00
2023-02-12T00:08:16.405Z,4.50
2023-02-12T00:10:45.692Z,4.23
2023-02-12T00:13:13.724Z,3.70
2023-02-12T00:15:42.555Z,4.50
2023-02-12T00:18:10.079Z,3.90
2023-02-12T00:20:38.335Z,3.93
2023-02-12T00:23:06.158Z,4.40
2023-02-12T00:25:33.812Z,4.47
2023-02-12T00:28:01.080Z,4.27
2023-02-12T00:30:28.372Z,4.50
2023-02-12T00:32:56.512Z,3.00
2023-02-12T00:35:23.671Z,3.43
2023-02-12T00:37:50.990Z,2.80
2023-02-12T00:40:18.380Z,3.20
2023-02-12T00:42:46.218Z,3.03
2023-02-12T00:45:13.386Z,2.13
2023-02-12T00:47:40.527Z,3.40
2023-02-12T00:50:09.309Z,2.50
2023-02-12T00:52:36.588Z,2.30
2023-02-12T00:55:05.479Z,2.27
2023-02-12T00:57:33.410Z,3.03
2023-02-12T01:00:00.564Z,2.63
2023-02-12T01:02:27.761Z,2.80
2023-02-12T01:04:54.982Z,3.17
2023-02-12T01:07:25.067Z,2.90
2023-02-12T01:09:52.609Z,2.83
2023-02-12T01:12:19.862Z,2.70
2023-02-12T01:14:47.225Z,2.00
2023-02-12T01:17:14.772Z,2.00
2023-02-12T01:19:45.024Z,2.20
2023-02-12T01:22:12.840Z,2.03
2023-02-12T01:24:39.990Z,1.70
2023-02-12T01:27:07.319Z,1.87
2023-02-12T01:29:34.511Z,1.77
2023-02-12T01:32:01.991Z,1.97
2023-02-12T01:34:29.868Z,2.17
2023-02-12T01:36:57.055Z,2.20
2023-02-12T01:39:24.242Z,1.60
2023-02-12T01:41:51.689Z,1.70
2023-02-12T01:44:21.894Z,1.60
2023-02-12T01:46:54.649Z,2.87
2023-02-12T01:49:29.040Z,2.20
2023-02-12T01:52:14.955Z,2.33
2023-02-12T01:54:42.965Z,2.57
2023-02-12T01:57:12.691Z,1.93
2023-02-12T01:59:43.021Z,2.03
2023-02-12T02:02:10.303Z,2.17
2023-02-12T02:04:43.835Z,2.60
2023-02-12T02:07:12.428Z,1.80
2023-02-12T02:09:40.275Z,2.30
2023-02-12T02:12:26.691Z,2.00
2023-02-12T02:15:00.201Z,2.80
2023-02-12T02:17:50.155Z,2.50
2023-02-12T02:20:44.022Z,2.40
2023-02-12T02:23:27.332Z,2.00
2023-02-12T02:26:12.648Z,2.40
2023-02-12T02:29:02.548Z,2.67
2023-02-12T02:31:55.168Z,1.80
2023-02-12T02:34:38.534Z,2.37
2023-02-12T02:37:21.029Z,2.10
2023-02-12T02:39:59.869Z,1.80
2023-02-12T02:42:33.028Z,2.57
2023-02-12T02:45:24.584Z,2.33
2023-02-12T02:48:02.345Z,3.20
2023-02-12T02:50:32.687Z,2.73
2023-02-12T02:53:04.387Z,2.57
2023-02-12T02:55:40.218Z,2.70
2023-02-12T02:58:13.338Z,3.30
2023-02-12T03:01:05.143Z,2.97
2023-02-12T03:03:37.566Z,3.00
2023-02-12T03:06:13.731Z,3.20
2023-02-12T03:08:52.569Z,3.53
2023-02-12T03:11:28.911Z,3.67
2023-02-12T03:14:12.140Z,3.13
2023-02-12T03:16:47.153Z,3.20
2023-02-12T03:19:21.371Z,3.13
2023-02-12T03:22:00.429Z,3.43
2023-02-12T03:24:49.857Z,3.23
2023-02-12T03:27:29.380Z,4.20
2023-02-12T03:29:58.526Z,4.33
2023-02-12T03:32:44.438Z,4.03
2023-02-12T03:35:25.590Z,3.70
2023-02-12T03:38:11.914Z,4.20
2023-02-12T03:40:59.430Z,4.00
2023-02-12T03:43:59.496Z,4.47
2023-02-12T03:46:42.923Z,4.60
2023-02-12T03:49:24.156Z,6.53
2023-02-12T03:51:51.343Z,5.40
2023-02-12T03:54:21.075Z,7.47
2023-02-12T03:57:02.962Z,6.90
2023-02-12T03:59:30.209Z,8.27
2023-02-12T04:01:59.377Z,7.90
2023-02-12T04:04:27.825Z,8.13
2023-02-12T04:06:56.336Z,6.10
2023-02-12T04:09:26.928Z,6.70
2023-02-12T04:12:19.085Z,5.83
2023-02-12T04:14:50.226Z,7.90
2023-02-12T04:17:26.501Z,8.73
2023-02-12T04:20:32.768Z,8.73
2023-02-12T04:22:59.931Z,9.37
2023-02-12T04:26:05.763Z,9.73
2023-02-12T04:28:55.024Z,10.07
2023-02-12T04:31:43.773Z,8.37
2023-02-12T04:34:33.242Z,8.50
2023-02-12T04:37:09.957Z,7.33
2023-02-12T04:39:39.936Z,9.30
2023-02-12T04:42:08.006Z,8.87
2023-02-12T04:44:40.409Z,8.83
2023-02-12T04:47:08.121Z,8.70
2023-02-12T04:49:35.320Z,7.73
2023-02-12T04:52:02.651Z,8.87
2023-02-12T04:54:29.824Z,10.10
2023-02-12T04:56:57.174Z,10.70
2023-02-12T04:59:24.492Z,10.40
2023-02-12T05:01:51.840Z,13.40
2023-02-12T05:04:19.967Z,8.43
2023-02-12T05:06:47.616Z,11.83
2023-02-12T05:09:20.102Z,10.50
2023-02-12T05:11:47.722Z,10.83
2023-02-12T05:14:15.259Z,11.20
2023-02-12T05:16:42.563Z,10.83
2023-02-12T05:19:09.882Z,13.90
2023-02-12T05:21:38.301Z,15.00
2023-02-12T05:24:05.956Z,12.40
2023-02-12T05:26:34.267Z,13.27
2023-02-12T05:29:01.984Z,14.00
2023-02-12T05:31:29.504Z,13.03
2023-02-12T05:33:56.691Z,16.70
2023-02-12T05:36:25.187Z,16.40
2023-02-12T05:38:56.459Z,10.10
2023-02-12T05:41:25.403Z,12.97
2023-02-12T05:43:53.537Z,15.83
2023-02-12T05:46:22.288Z,16.00
2023-02-12T05:48:49.585Z,15.77
2023-02-12T05:51:21.722Z,18.20
2023-02-12T05:53:51.105Z,18.77
2023-02-12T05:56:26.493Z,16.43
2023-02-12T05:58:56.113Z,21.67
2023-02-12T06:01:29.383Z,16.50
2023-02-12T06:03:57.880Z,17.83
2023-02-12T06:06:26.897Z,18.03
2023-02-12T06:08:54.495Z,16.20
2023-02-12T06:11:22.513Z,19.37
2023-02-12T06:13:49.761Z,15.03
2023-02-12T06:16:19.641Z,18.17
2023-02-12T06:18:47.686Z,22.77
2023-02-12T06:21:16.020Z,19.30
2023-02-12T06:23:43.312Z,21.50
2023-02-12T06:26:11.082Z,21.20
2023-02-12T06:28:38.961Z,21.90
2023-02-12T06:31:06.306Z,20.53
2023-02-12T06:33:35.486Z,18.80
2023-02-12T06:36:04.493Z,20.67
2023-02-12T06:38:34.985Z,21.53
2023-02-12T06:41:03.033Z,20.53
2023-02-12T06:43:30.996Z,18.73
2023-02-12T06:46:01.138Z,22.73
2023-02-12T06:48:29.211Z,19.23
2023-02-12T06:50:56.964Z,21.27
2023-02-12T06:53:24.125Z,23.73
2023-02-12T06:55:51.268Z,24.27
2023-02-12T06:58:18.418Z,19.57
2023-02-12T07:00:45.936Z,19.07
2023-02-12T07:03:13.629Z,21.03
2023-02-12T07:05:44.256Z,20.37
2023-02-12T07:08:11.588Z,20.73
2023-02-12T07:10:40.001Z,24.37
2023-02-12T07:13:07.177Z,19.87
2023-02-12T07:15:38.102Z,18.83
2023-02-12T07:18:05.275Z,20.60
2023-02-12T07:20:32.515Z,19.70
2023-02-12T07:22:59.724Z,20.53
2023-02-12T07:25:26.906Z,21.97
2023-02-12T07:27:54.083Z,22.07
2023-02-12T07:30:21.348Z,23.70
2023-02-12T07:32:49.071Z,18.07
2023-02-12T07:35:16.246Z,23.00
2023-02-12T07:37:49.375Z,20.87
2023-02-12T07:40:16.779Z,21.87
2023-02-12T07:42:44.019Z,17.77
2023-02-12T07:45:11.297Z,19.30
2023-02-12T07:47:38.622Z,21.60
2023-02-12T07:50:08.433Z,20.07
2023-02-12T07:52:35.660Z,20.80
2023-02-12T07:55:03.836Z,20.00
2023-02-12T07:57:31.129Z,21.60
2023-02-12T07:59:59.598Z,19.67
2023-02-12T08:02:26.953Z,18.47
2023-02-12T08:04:58.174Z,20.33
2023-02-12T08:07:25.670Z,21.00
2023-02-12T08:09:53.391Z,17.73
2023-02-12T08:12:20.703Z,18.80
2023-02-12T08:14:47.919Z,18.80
2023-02-12T08:17:15.506Z,15.83
2023-02-12T08:20:08.025Z,16.07
2023-02-12T08:22:35.930Z,16.30
2023-02-12T08:25:03.119Z,16.70
2023-02-12T08:27:30.321Z,16.70
2023-02-12T08:29:57.465Z,15.30
2023-02-12T08:32:24.682Z,15.60
2023-02-12T08:34:51.897Z,17.73
2023-02-12T08:37:19.135Z,16.13
2023-02-12T08:39:46.934Z,17.10
2023-02-12T08:42:14.108Z,16.13
2023-02-12T08:44:42.505Z,16.60
2023-02-12T08:47:10.107Z,16.33
2023-02-12T08:49:37.730Z,16.00
2023-02-12T08:52:05.619Z,17.03
2023-02-12T08:54:32.957Z,17.63
2023-02-12T08:57:02.230Z,16.90
2023-02-12T08:59:30.839Z,16.30
2023-02-12T09:01:58.070Z,17.50
2023-02-12T09:04:27.811Z,16.33
2023-02-12T09:06:55.363Z,15.33
2023-02-12T09:09:23.315Z,25.07
2023-02-12T09:11:50.741Z,24.30
2023-02-12T09:14:23.451Z,18.13
2023-02-12T09:16:52.955Z,17.43
2023-02-12T09:19:21.562Z,20.25
2023-02-12T09:21:55.510Z,18.00
2023-02-12T09:24:25.130Z,15.27
2023-02-12T09:26:52.967Z,13.50
2023-02-12T09:29:20.236Z,14.20
2023-02-12T09:31:48.283Z,12.80
2023-02-12T09:34:15.523Z,12.20
2023-02-12T09:36:42.694Z,12.00
2023-02-12T09:39:09.936Z,11.90
2023-02-12T09:41:50.543Z,11.10
2023-02-12T09:44:36.776Z,11.93
2023-02-12T09:47:13.500Z,11.27
2023-02-12T09:49:55.953Z,9.77
2023-02-12T09:52:27.208Z,10.57
2023-02-12T09:54:56.347Z,8.80
2023-02-12T09:57:35.971Z,11.23
2023-02-12T10:00:18.092Z,9.30
2023-02-12T10:02:46.473Z,11.63
2023-02-12T10:05:20.807Z,11.13
2023-02-12T10:08:15.492Z,9.57
2023-02-12T10:10:53.603Z,10.07
2023-02-12T10:14:14.911Z,9.87
2023-02-12T10:17:12.257Z,10.80
2023-02-12T10:20:00.984Z,11.30
2023-02-12T10:22:48.235Z,10.27
2023-02-12T10:25:34.482Z,10.50
2023-02-12T10:28:11.217Z,12.60
2023-02-12T10:31:02.762Z,12.57
2023-02-12T10:33:36.464Z,10.80
2023-02-12T10:36:35.237Z,11.80
2023-02-12T10:39:12.785Z,10.60
2023-02-12T10:41:52.748Z,10.07
2023-02-12T10:44:19.974Z,10.33
2023-02-12T10:46:47.240Z,10.20
2023-02-12T10:49:17.019Z,10.47
2023-02-12T10:52:03.466Z,11.00
2023-02-12T10:54:40.860Z,11.90
2023-02-12T10:57:21.868Z,11.07
2023-02-12T10:59:53.047Z,12.87
2023-02-12T11:02:30.478Z,11.27
2023-02-12T11:04:59.946Z,13.13
2023-02-12T11:07:28.176Z,11.27
2023-02-12T11:09:57.072Z,11.30
2023-02-12T11:12:31.604Z,11.10
2023-02-12T11:15:01.725Z,11.27
2023-02-12T11:17:39.673Z,11.23
2023-02-12T11:20:16.214Z,10.80
2023-02-12T11:22:59.003Z,10.83
2023-02-12T11:25:29.281Z,11.87
2023-02-12T11:28:15.559Z,8.93
2023-02-12T11:30:55.525Z,10.47
2023-02-12T11:33:29.219Z,10.73
2023-02-12T11:36:12.496Z,10.30
2023-02-12T11:38:55.504Z,9.13
2023-02-12T11:41:43.709Z,8.60
2023-02-12T11:44:21.497Z,8.30
2023-02-12T11:46:53.453Z,9.00
2023-02-12T11:49:30.056Z,6.10
2023-02-12T11:51:58.537Z,4.90
2023-02-12T11:54:30.811Z,6.83
2023-02-12T11:56:58.575Z,6.30
2023-02-12T11:59:38.409Z,5.70
2023-02-12T12:02:30.223Z,5.30
2023-02-12T12:05:08.389Z,5.27
2023-02-12T12:07:38.914Z,4.90
2023-02-12T12:10:15.518Z,5.50
2023-02-12T12:12:51.145Z,4.70
2023-02-12T12:15:37.064Z,4.50
2023-02-12T12:18:39.083Z,5.40
2023-02-12T12:21:34.025Z,4.37
2023-02-12T12:24:09.709Z,4.80
2023-02-12T12:26:40.649Z,3.77
2023-02-12T12:29:22.089Z,4.63
2023-02-12T12:31:54.757Z,3.93
2023-02-12T12:34:24.660Z,3.37
2023-02-12T12:37:19.895Z,4.00
2023-02-12T12:40:18.239Z,3.30
2023-02-12T12:43:13.045Z,2.87
2023-02-12T12:45:56.199Z,3.13
2023-02-12T12:49:01.141Z,2.70
2023-02-12T12:51:41.713Z,2.70
2023-02-12T12:54:36.395Z,2.53
2023-02-12T12:57:16.886Z,2.83
2023-02-12T13:00:25.380Z,2.70
2023-02-12T13:03:24.767Z,2.20
2023-02-12T13:06:49.278Z,2.90
2023-02-12T13:10:12.905Z,3.95
2023-02-12T13:13:00.903Z,4.00
2023-02-12T13:15:39.250Z,2.90
2023-02-12T13:18:13.777Z,3.53
2023-02-12T13:21:06.988Z,4.23
2023-02-12T13:23:57.149Z,2.60
2023-02-12T13:26:52.743Z,3.10
2023-02-12T13:29:25.969Z,3.77
2023-02-12T13:32:00.232Z,2.93
2023-02-12T13:34:30.575Z,3.10
2023-02-12T13:37:01.023Z,3.70
2023-02-12T13:39:39.298Z,2.70
2023-02-12T13:42:18.556Z,2.67
2023-02-12T13:45:05.495Z,2.60
2023-02-12T13:47:58.630Z,2.80
2023-02-12T13:50:46.024Z,3.33
2023-02-12T13:53:37.025Z,2.63
2023-02-12T13:56:27.958Z,2.27
2023-02-12T13:58:56.618Z,2.83
2023-02-12T14:01:41.804Z,2.37
2023-02-12T14:04:22.930Z,3.10
2023-02-12T14:07:02.634Z,3.00
2023-02-12T14:09:40.928Z,4.17
2023-02-12T14:12:26.756Z,2.90
2023-02-12T14:15:04.216Z,2.77
2023-02-12T14:17:31.940Z,2.00
2023-02-12T14:20:24.348Z,1.93
2023-02-12T14:22:51.528Z,1.90
2023-02-12T14:25:32.295Z,2.40
2023-02-12T14:28:12.880Z,3.73
2023-02-12T14:30:41.457Z,2.80
2023-02-12T14:33:27.064Z,2.00
2023-02-12T14:36:18.276Z,2.03
2023-02-12T14:38:47.774Z,2.00
2023-02-12T14:41:42.643Z,2.80
2023-02-12T14:44:29.320Z,1.67
2023-02-12T14:46:59.222Z,2.23
2023-02-12T14:49:46.617Z,2.10
2023-02-12T14:52:16.760Z,1.73
2023-02-12T14:54:50.926Z,1.90
2023-02-12T14:57:28.943Z,1.97
2023-02-12T15:00:00.314Z,2.20
2023-02-12T15:02:32.686Z,2.00
2023-02-12T15:05:07.502Z,1.93
2023-02-12T15:08:03.978Z,2.20
2023-02-12T15:10:48.762Z,2.30
2023-02-12T15:13:22.017Z,2.20
2023-02-12T15:15:55.044Z,2.13
2023-02-12T15:18:27.395Z,2.30
2023-02-12T15:21:06.638Z,2.23
2023-02-12T15:23:33.860Z,2.20
2023-02-12T15:26:03.389Z,2.20
2023-02-12T15:28:35.437Z,1.83
2023-02-12T15:31:06.079Z,2.73
2023-02-12T15:33:37.648Z,2.40
2023-02-12T15:36:06.521Z,3.57
2023-02-12T15:38:38.492Z,2.60
2023-02-12T15:41:07.212Z,3.07
2023-02-12T15:43:39.638Z,3.13
2023-02-12T15:46:17.254Z,3.00
2023-02-12T15:48:45.240Z,2.70
2023-02-12T15:51:34.731Z,2.57
2023-02-12T15:54:06.810Z,2.60
2023-02-12T15:56:36.181Z,3.03
2023-02-12T15:59:04.144Z,2.90
2023-02-12T16:01:34.992Z,3.17
2023-02-12T16:04:07.332Z,3.00
2023-02-12T16:06:36.745Z,3.67
2023-02-12T16:09:16.455Z,3.30
2023-02-12T16:11:46.132Z,4.10
2023-02-12T16:14:24.599Z,3.47
2023-02-12T16:16:54.869Z,3.23
2023-02-12T16:19:25.090Z,3.67
2023-02-12T16:22:05.864Z,3.87
2023-02-12T16:24:45.195Z,3.67
2023-02-12T16:27:15.444Z,4.53
2023-02-12T16:29:49.720Z,4.23
2023-02-12T16:32:49.519Z,4.80
2023-02-12T16:35:16.748Z,4.70
2023-02-12T16:37:52.027Z,4.20
2023-02-12T16:40:26.874Z,4.83
2023-02-12T16:42:54.276Z,4.50
2023-02-12T16:45:27.504Z,5.23
2023-02-12T16:48:00.363Z,5.50
2023-02-12T16:50:32.176Z,5.47
2023-02-12T16:53:04.978Z,5.83
2023-02-12T16:55:32.648Z,5.30
2023-02-12T16:58:00.866Z,7.20
2023-02-12T17:00:28.154Z,6.47
2023-02-12T17:02:56.242Z,5.87
2023-02-12T17:05:24.096Z,6.90
2023-02-12T17:07:51.662Z,6.13
2023-02-12T17:10:19.037Z,6.07
2023-02-12T17:12:51.925Z,6.50
2023-02-12T17:15:30.307Z,6.60
2023-02-12T17:17:57.557Z,7.57
2023-02-12T17:20:25.086Z,8.00
2023-02-12T17:22:57.165Z,7.50
2023-02-12T17:25:24.764Z,8.10
2023-02-12T17:27:52.351Z,8.70
2023-02-12T17:30:24.106Z,8.77
2023-02-12T17:32:51.799Z,8.27
2023-02-12T17:35:19.146Z,10.63
2023-02-12T17:37:48.032Z,9.13
2023-02-12T17:40:16.337Z,8.50
2023-02-12T17:43:08.691Z,10.70
2023-02-12T17:45:43.001Z,10.30
2023-02-12T17:48:15.536Z,11.70
2023-02-12T17:50:43.587Z,11.20
2023-02-12T17:53:10.845Z,11.30
2023-02-12T17:55:40.354Z,13.10
2023-02-12T17:58:08.158Z,12.97
2023-02-12T18:00:36.128Z,13.17
2023-02-12T18:03:03.423Z,14.47
2023-02-12T18:05:30.994Z,15.00
2023-02-12T18:07:58.400Z,13.90
2023-02-12T18:10:25.644Z,13.77
2023-02-12T18:12:52.821Z,14.10
2023-02-12T18:15:21.134Z,14.17
2023-02-12T18:17:49.091Z,13.93
2023-02-12T18:20:16.303Z,13.57
2023-02-12T18:22:45.256Z,13.37
2023-02-12T18:25:12.505Z,12.50
2023-02-12T18:27:39.851Z,12.93
2023-02-12T18:30:08.932Z,13.30
2023-02-12T18:32:36.653Z,13.87
2023-02-12T18:35:06.490Z,13.13
2023-02-12T18:37:34.554Z,13.10
2023-02-12T18:40:02.434Z,13.50
2023-02-12T18:42:33.173Z,14.13
2023-02-12T18:45:00.909Z,12.30
2023-02-12T18:47:29.171Z,12.90
2023-02-12T18:49:57.933Z,12.93
2023-02-12T18:52:25.234Z,12.50
2023-02-12T18:54:53.052Z,13.30
2023-02-12T18:57:20.409Z,12.50
2023-02-12T18:59:47.713Z,12.20
2023-02-12T19:02:14.977Z,10.83
2023-02-12T19:04:42.311Z,11.70
2023-02-12T19:07:09.575Z,12.60
2023-02-12T19:09:36.811Z,11.70
2023-02-12T19:12:05.580Z,13.60
2023-02-12T19:14:33.703Z,12.90
2023-02-12T19:17:01.739Z,13.53
2023-02-12T19:19:32.945Z,12.37
2023-02-12T19:22:00.123Z,13.47
2023-02-12T19:24:40.896Z,13.53
2023-02-12T19:27:09.211Z,11.27
2023-02-12T19:29:36.849Z,12.63
2023-02-12T19:32:04.235Z,12.10
2023-02-12T19:34:31.500Z,11.80
2023-02-12T19:36:58.780Z,12.13
2023-02-12T19:39:27.375Z,10.93
2023-02-12T19:41:56.101Z,13.20
2023-02-12T19:44:25.110Z,11.90
2023-02-12T19:46:53.033Z,11.77
2023-02-12T19:49:25.890Z,11.93
2023-02-12T19:51:53.143Z,15.07
2023-02-12T19:54:23.029Z,15.10
2023-02-12T19:56:51.581Z,12.70
2023-02-12T19:59:21.720Z,11.13
2023-02-12T20:01:49.923Z,11.17
2023-02-12T20:04:20.369Z,11.73
2023-02-12T20:06:52.196Z,10.73
2023-02-12T20:09:21.942Z,11.17
2023-02-12T20:11:49.231Z,11.77
2023-02-12T20:14:17.384Z,11.33
2023-02-12T20:16:46.772Z,9.90
2023-02-12T20:19:29.877Z,10.37
2023-02-12T20:21:58.801Z,10.40
2023-02-12T20:24:29.529Z,9.00
2023-02-12T20:26:58.437Z,9.70
2023-02-12T20:29:26.315Z,11.63
2023-02-12T20:31:53.894Z,10.57
2023-02-12T20:34:22.231Z,11.53
2023-02-12T20:36:49.746Z,11.97
2023-02-12T20:39:20.074Z,10.90
2023-02-12T20:41:48.060Z,12.70
2023-02-12T20:44:18.246Z,11.70
2023-02-12T20:46:47.133Z,11.20
2023-02-12T20:49:16.866Z,10.17
2023-02-12T20:51:45.118Z,12.03
2023-02-12T20:54:12.650Z,10.30
2023-02-12T20:56:39.890Z,11.33
2023-02-12T20:59:07.929Z,10.90
2023-02-12T21:01:38.211Z,12.20
2023-02-12T21:04:08.733Z,11.00
2023-02-12T21:06:36.928Z,10.10
2023-02-12T21:09:04.181Z,10.50
2023-02-12T21:11:31.606Z,10.50
2023-02-12T21:14:18.548Z,12.10
2023-02-12T21:16:47.171Z,9.80
2023-02-12T21:19:20.557Z,10.90
2023-02-12T21:21:47.812Z,10.40
2023-02-12T21:24:18.165Z,10.93
2023-02-12T21:26:46.225Z,10.87
2023-02-12T21:29:14.196Z,10.60
2023-02-12T21:31:44.691Z,10.90
2023-02-12T21:34:17.496Z,10.73
2023-02-12T21:36:46.968Z,10.67
2023-02-12T21:39:24.429Z,11.07
2023-02-12T21:41:54.649Z,10.43
2023-02-12T21:44:23.502Z,10.33
2023-02-12T21:46:50.754Z,10.50
2023-02-12T21:49:24.635Z,10.10
2023-02-12T21:51:58.205Z,10.20
2023-02-12T21:54:26.035Z,10.30
2023-02-12T21:56:53.219Z,11.07
2023-02-12T21:59:21.185Z,10.90
2023-02-12T22:01:50.815Z,10.70
2023-02-12T22:04:19.148Z,11.17
2023-02-12T22:06:49.592Z,11.43
2023-02-12T22:09:22.031Z,10.73
2023-02-12T22:11:49.653Z,10.90
2023-02-12T22:14:17.784Z,10.60
2023-02-12T22:16:45.986Z,10.67
2023-02-12T22:19:13.326Z,11.53
2023-02-12T22:21:42.218Z,11.70
2023-02-12T22:24:12.517Z,12.33
2023-02-12T22:26:39.716Z,10.17
2023-02-12T22:29:09.573Z,12.00
2023-02-12T22:31:40.280Z,12.07
2023-02-12T22:34:12.635Z,12.93
2023-02-12T22:36:40.859Z,11.63
2023-02-12T22:39:10.074Z,13.77
2023-02-12T22:42:02.925Z,12.97
2023-02-12T22:44:30.084Z,11.97
2023-02-12T22:46:57.763Z,11.83
2023-02-12T22:49:24.996Z,13.13
2023-02-12T22:51:52.697Z,13.90
2023-02-12T22:54:21.040Z,13.57
2023-02-12T22:56:51.946Z,14.03
2023-02-12T22:59:19.362Z,12.97
2023-02-12T23:01:46.991Z,12.40
2023-02-12T23:04:16.729Z,13.83
2023-02-12T23:06:46.002Z,14.17
2023-02-12T23:09:16.594Z,12.90
2023-02-12T23:11:43.817Z,13.37
2023-02-12T23:14:11.700Z,13.67
2023-02-12T23:16:39.047Z,12.83
2023-02-12T23:19:06.586Z,13.20
2023-02-12T23:21:34.154Z,12.30
2023-02-12T23:24:01.385Z,12.60
2023-02-12T23:26:29.834Z,12.20
2023-02-12T23:28:58.055Z,12.23
2023-02-12T23:31:25.988Z,12.83
2023-02-12T23:33:58.270Z,12.07
2023-02-12T23:36:25.889Z,12.00
2023-02-12T23:38:53.075Z,11.43
2023-02-12T23:41:20.444Z,11.30
2023-02-12T23:43:47.625Z,10.80
2023-02-12T23:46:14.916Z,11.60
2023-02-12T23:48:44.342Z,10.90
2023-02-12T23:51:11.759Z,10.80
2023-02-12T23:53:38.953Z,10.80
2023-02-12T23:56:07.016Z,10.30
2023-02-12T23:58:34.171Z,11.00
